createdAt,value
2019-03-01T00:01:29.321Z,5.47
2019-03-01T00:06:28.215Z,3.60
2019-03-01T00:11:06.076Z,3.87
2019-03-01T00:15:25.313Z,6.33
2019-03-01T00:19:35.600Z,6.57
2019-03-01T00:24:00.719Z,6.53
2019-03-01T00:28:25.854Z,3.27
2019-03-01T00:32:42.095Z,4.43
2019-03-01T00:37:22.954Z,4.80
2019-03-01T00:41:54.883Z,4.90
2019-03-01T00:46:00.579Z,5.33
2019-03-01T00:50:10.125Z,3.85
2019-03-01T00:54:15.818Z,3.87
2019-03-01T00:58:21.531Z,5.27
2019-03-01T01:02:27.239Z,2.30
2019-03-01T01:06:32.950Z,5.43
2019-03-01T01:10:38.660Z,2.07
2019-03-01T01:14:44.421Z,4.40
2019-03-01T01:18:50.122Z,3.83
2019-03-01T01:22:55.790Z,2.37
2019-03-01T01:27:01.509Z,7.10
2019-03-01T01:31:07.305Z,2.57
2019-03-01T01:35:13.034Z,4.70
2019-03-01T01:39:18.732Z,3.10
2019-03-01T01:43:24.452Z,1.90
2019-03-01T01:47:30.137Z,2.37
2019-03-01T01:51:35.902Z,2.03
2019-03-01T01:55:41.612Z,2.60
2019-03-01T01:59:47.280Z,4.20
2019-03-01T02:03:52.974Z,2.13
2019-03-01T02:07:58.868Z,1.80
2019-03-01T02:12:04.698Z,2.20
2019-03-01T02:16:10.427Z,1.70
2019-03-01T02:20:16.192Z,1.60
2019-03-01T02:24:21.883Z,2.23
2019-03-01T02:28:27.582Z,3.27
2019-03-01T02:32:40.760Z,2.03
2019-03-01T02:36:46.436Z,2.27
2019-03-01T02:40:52.111Z,1.33
2019-03-01T02:44:57.797Z,2.10
2019-03-01T02:49:03.526Z,3.80
2019-03-01T02:53:09.226Z,2.03
2019-03-01T02:57:14.987Z,2.73
2019-03-01T03:01:20.669Z,1.43
2019-03-01T03:05:26.453Z,1.83
2019-03-01T03:09:32.200Z,1.50
2019-03-01T03:13:37.891Z,1.80
2019-03-01T03:17:43.575Z,2.30
2019-03-01T03:21:49.261Z,2.10
2019-03-01T03:25:54.954Z,4.03
2019-03-01T03:30:00.782Z,2.83
2019-03-01T03:34:06.850Z,1.20
2019-03-01T03:38:12.540Z,3.80
2019-03-01T03:42:18.299Z,1.43
2019-03-01T03:46:24.001Z,1.60
2019-03-01T03:50:29.684Z,2.67
2019-03-01T03:54:35.381Z,1.97
2019-03-01T03:58:41.207Z,1.60
2019-03-01T04:02:47.395Z,1.73
2019-03-01T04:06:53.084Z,2.70
2019-03-01T04:10:58.919Z,1.47
2019-03-01T04:15:07.064Z,1.10
2019-03-01T04:19:12.741Z,1.83
2019-03-01T04:23:18.435Z,1.07
2019-03-01T04:27:25.200Z,1.77
2019-03-01T04:31:30.891Z,1.13
2019-03-01T04:35:37.633Z,0.93
2019-03-01T04:39:43.369Z,1.20
2019-03-01T04:43:50.672Z,0.70
2019-03-01T04:47:56.385Z,0.88
2019-03-01T04:52:23.143Z,2.77
2019-03-01T04:56:28.908Z,0.60
2019-03-01T05:00:34.609Z,1.03
2019-03-01T05:04:40.335Z,0.60
2019-03-01T05:08:46.026Z,1.23
2019-03-01T05:12:51.795Z,1.57
2019-03-01T05:16:57.478Z,2.40
2019-03-01T05:21:03.236Z,1.43
2019-03-01T05:25:11.184Z,1.63
2019-03-01T05:29:16.857Z,1.40
2019-03-01T05:33:22.557Z,1.17
2019-03-01T05:37:28.236Z,0.67
2019-03-01T05:41:33.933Z,0.80
2019-03-01T05:45:39.653Z,1.77
2019-03-01T05:49:45.388Z,2.07
2019-03-01T05:53:51.081Z,0.80
2019-03-01T05:58:23.835Z,1.57
2019-03-01T06:02:57.642Z,1.47
2019-03-01T06:07:25.961Z,5.30
2019-03-01T06:11:39.035Z,6.57
2019-03-01T06:16:07.028Z,6.93
2019-03-01T06:20:47.756Z,0.70
2019-03-01T06:25:12.817Z,0.73
2019-03-01T06:29:37.689Z,1.20
2019-03-01T06:34:10.301Z,1.15
2019-03-01T06:38:51.994Z,0.50
2019-03-01T06:43:09.443Z,0.67
2019-03-01T06:47:45.824Z,0.40
2019-03-01T06:51:52.499Z,0.60
2019-03-01T06:55:58.177Z,1.30
2019-03-01T07:00:07.019Z,3.30
2019-03-01T07:04:14.496Z,1.17
2019-03-01T07:08:20.266Z,2.00
2019-03-01T07:12:25.968Z,1.73
2019-03-01T07:16:31.646Z,1.00
2019-03-01T07:20:37.343Z,1.53
2019-03-01T07:24:43.042Z,2.77
2019-03-01T07:28:48.736Z,2.60
2019-03-01T07:32:54.417Z,1.60
2019-03-01T07:37:00.151Z,2.50
2019-03-01T07:41:05.834Z,2.10
2019-03-01T07:45:13.645Z,2.80
2019-03-01T07:49:19.342Z,2.83
2019-03-01T07:53:26.079Z,3.47
2019-03-01T07:57:31.794Z,0.83
2019-03-01T08:01:37.559Z,1.00
2019-03-01T08:05:44.900Z,0.43
2019-03-01T08:09:50.598Z,0.60
2019-03-01T08:13:56.619Z,1.93
2019-03-01T08:18:04.759Z,0.73
2019-03-01T08:22:09.779Z,2.10
2019-03-01T08:26:15.485Z,1.10
2019-03-01T08:30:21.273Z,0.70
2019-03-01T08:34:26.953Z,1.00
2019-03-01T08:38:33.466Z,1.67
2019-03-01T08:42:39.302Z,0.73
2019-03-01T08:46:45.555Z,0.50
2019-03-01T08:50:52.274Z,2.77
2019-03-01T08:55:00.030Z,2.13
2019-03-01T08:59:05.636Z,0.77
2019-03-01T09:03:25.094Z,1.80
2019-03-01T09:07:30.959Z,0.90
2019-03-01T09:11:36.744Z,0.97
2019-03-01T09:15:42.479Z,0.80
2019-03-01T09:19:49.782Z,0.87
2019-03-01T09:23:55.899Z,1.13
2019-03-01T09:28:01.601Z,2.43
2019-03-01T09:32:07.442Z,0.30
2019-03-01T09:36:20.531Z,0.50
2019-03-01T09:40:25.522Z,0.70
2019-03-01T09:44:34.567Z,0.80
2019-03-01T09:48:39.693Z,4.03
2019-03-01T09:52:46.762Z,0.77
2019-03-01T09:56:52.615Z,0.23
2019-03-01T10:01:11.096Z,1.50
2019-03-01T10:05:16.791Z,0.73
2019-03-01T10:09:22.485Z,2.03
2019-03-01T10:13:30.299Z,0.40
2019-03-01T10:17:35.605Z,1.70
2019-03-01T10:21:42.352Z,1.23
2019-03-01T10:25:48.039Z,0.83
2019-03-01T10:29:53.734Z,1.70
2019-03-01T10:33:59.404Z,3.63
2019-03-01T10:38:05.269Z,0.60
2019-03-01T10:42:10.979Z,13.40
2019-03-01T10:46:16.677Z,1.30
2019-03-01T10:50:22.498Z,0.43
2019-03-01T10:54:28.191Z,0.67
2019-03-01T10:58:33.891Z,0.53
2019-03-01T11:02:50.224Z,0.90
2019-03-01T11:06:56.606Z,0.80
2019-03-01T11:11:02.363Z,1.90
2019-03-01T11:15:12.356Z,1.67
2019-03-01T11:19:19.586Z,0.70
2019-03-01T11:23:26.890Z,1.10
2019-03-01T11:27:32.643Z,1.40
2019-03-01T11:31:38.321Z,0.77
2019-03-01T11:35:45.170Z,0.60
2019-03-01T11:39:50.863Z,1.10
2019-03-01T11:43:56.554Z,3.70
2019-03-01T11:48:02.399Z,2.30
2019-03-01T11:52:08.082Z,1.37
2019-03-01T11:56:13.788Z,1.43
2019-03-01T12:00:25.102Z,1.33
2019-03-01T12:04:30.831Z,1.20
2019-03-01T12:08:36.568Z,1.50
2019-03-01T12:12:42.328Z,2.43
2019-03-01T12:16:48.106Z,1.07
2019-03-01T12:20:53.897Z,3.00
2019-03-01T12:24:59.917Z,1.87
2019-03-01T12:29:05.684Z,1.90
2019-03-01T12:33:11.424Z,1.93
2019-03-01T12:37:17.196Z,2.37
2019-03-01T12:41:22.905Z,1.93
2019-03-01T12:45:28.670Z,1.80
2019-03-01T12:49:34.357Z,1.90
2019-03-01T12:53:40.039Z,1.80
2019-03-01T12:57:45.873Z,1.70
2019-03-01T13:01:51.582Z,1.93
2019-03-01T13:05:57.338Z,1.80
2019-03-01T13:10:06.775Z,1.60
2019-03-01T13:14:10.582Z,2.10
2019-03-01T13:18:18.719Z,1.80
2019-03-01T13:22:24.763Z,1.80
2019-03-01T13:26:31.830Z,2.10
2019-03-01T13:30:37.518Z,2.30
2019-03-01T13:34:45.789Z,2.43
2019-03-01T13:38:50.714Z,2.30
2019-03-01T13:42:56.403Z,2.60
2019-03-01T13:47:02.133Z,2.90
2019-03-01T13:51:07.817Z,2.50
2019-03-01T13:55:18.598Z,2.37
2019-03-01T13:59:22.914Z,2.72
2019-03-01T14:03:29.614Z,2.90
2019-03-01T14:07:35.382Z,3.00
2019-03-01T14:11:41.090Z,2.10
2019-03-01T14:15:46.845Z,3.47
2019-03-01T14:19:52.495Z,3.30
2019-03-01T14:23:58.198Z,3.57
2019-03-01T14:28:05.101Z,3.60
2019-03-01T14:32:10.982Z,4.90
2019-03-01T14:36:17.238Z,4.93
2019-03-01T14:40:23.670Z,7.58
2019-03-01T14:44:30.762Z,5.27
2019-03-01T14:48:36.791Z,6.80
2019-03-01T14:52:42.521Z,7.00
2019-03-01T14:56:48.944Z,9.03
2019-03-01T15:00:59.252Z,5.63
2019-03-01T15:05:06.768Z,8.97
2019-03-01T15:09:13.116Z,7.27
2019-03-01T15:13:19.030Z,5.70
2019-03-01T15:17:24.798Z,4.80
2019-03-01T15:21:30.517Z,7.37
2019-03-01T15:25:36.249Z,8.33
2019-03-01T15:29:41.948Z,7.30
2019-03-01T15:33:47.924Z,7.97
2019-03-01T15:37:53.609Z,7.43
2019-03-01T15:41:59.351Z,7.28
2019-03-01T15:46:05.111Z,7.93
2019-03-01T15:50:13.668Z,7.67
2019-03-01T15:54:19.373Z,7.33
2019-03-01T15:58:25.103Z,9.40
2019-03-01T16:02:30.800Z,8.20
2019-03-01T16:06:38.147Z,7.80
2019-03-01T16:10:43.901Z,9.30
2019-03-01T16:14:49.583Z,6.73
2019-03-01T16:18:55.370Z,12.90
2019-03-01T16:23:01.089Z,8.00
2019-03-01T16:27:08.696Z,9.47
2019-03-01T16:31:14.595Z,9.67
2019-03-01T16:35:21.897Z,9.78
2019-03-01T16:39:27.599Z,9.73
2019-03-01T16:43:35.093Z,8.87
2019-03-01T16:47:41.980Z,8.20
2019-03-01T16:51:50.602Z,11.43
2019-03-01T16:55:55.868Z,11.63
2019-03-01T17:00:01.572Z,11.63
2019-03-01T17:04:08.891Z,11.20
2019-03-01T17:08:14.586Z,10.87
2019-03-01T17:12:22.407Z,10.83
2019-03-01T17:16:27.742Z,12.37
2019-03-01T17:20:37.400Z,10.37
2019-03-01T17:24:40.902Z,9.90
2019-03-01T17:28:46.683Z,10.90
2019-03-01T17:32:52.450Z,12.77
2019-03-01T17:36:58.277Z,10.90
2019-03-01T17:41:06.300Z,10.37
2019-03-01T17:45:26.665Z,9.37
2019-03-01T17:49:33.092Z,10.63
2019-03-01T17:53:39.731Z,10.93
2019-03-01T17:57:45.562Z,15.10
2019-03-01T18:01:51.417Z,13.20
2019-03-01T18:05:57.114Z,11.13
2019-03-01T18:10:02.868Z,12.57
2019-03-01T18:14:08.624Z,12.57
2019-03-01T18:18:14.572Z,11.80
2019-03-01T18:22:23.031Z,12.97
2019-03-01T18:26:27.665Z,10.77
2019-03-01T18:35:27.485Z,11.30
2019-03-01T18:39:33.207Z,10.60
2019-03-01T18:43:38.910Z,10.23
2019-03-01T18:47:45.027Z,10.70
2019-03-01T18:51:50.756Z,12.67
2019-03-01T18:55:56.456Z,11.83
2019-03-01T19:00:02.162Z,12.33
2019-03-01T19:04:08.788Z,12.30
2019-03-01T19:08:14.621Z,14.83
2019-03-01T19:12:21.307Z,16.82
2019-03-01T19:16:28.623Z,14.43
2019-03-01T19:20:44.720Z,16.33
2019-03-01T19:24:50.769Z,18.80
2019-03-01T19:28:59.031Z,23.87
2019-03-01T19:33:03.921Z,24.43
2019-03-01T19:37:10.178Z,23.40
2019-03-01T19:41:15.982Z,24.53
2019-03-01T19:45:21.893Z,24.77
2019-03-01T19:49:27.609Z,25.70
2019-03-01T19:53:33.314Z,26.03
2019-03-01T19:57:39.012Z,28.67
2019-03-01T20:01:44.778Z,29.87
2019-03-01T20:05:50.513Z,30.47
2019-03-01T20:09:57.451Z,27.30
2019-03-01T20:14:03.205Z,30.03
2019-03-01T20:18:09.924Z,27.13
2019-03-01T20:22:18.593Z,29.30
2019-03-01T20:26:26.861Z,29.50
2019-03-01T20:30:34.741Z,30.33
2019-03-01T20:34:40.453Z,27.70
2019-03-01T20:38:46.272Z,27.33
2019-03-01T20:42:52.116Z,27.17
2019-03-01T20:46:57.826Z,24.10
2019-03-01T20:51:03.535Z,22.67
2019-03-01T20:55:11.910Z,25.93
2019-03-01T20:59:17.622Z,23.70
2019-03-01T21:03:24.113Z,26.83
2019-03-01T21:07:30.740Z,26.20
2019-03-01T21:11:36.446Z,24.80
2019-03-01T21:15:42.231Z,24.47
2019-03-01T21:19:47.979Z,26.60
2019-03-01T21:23:53.692Z,23.93
2019-03-01T21:28:00.853Z,25.57
2019-03-01T21:32:06.899Z,24.60
2019-03-01T21:36:12.595Z,24.93
2019-03-01T21:40:18.344Z,24.63
2019-03-01T21:44:24.061Z,25.00
2019-03-01T21:48:29.761Z,24.67
2019-03-01T21:52:35.492Z,24.82
2019-03-01T21:56:55.549Z,25.50
2019-03-01T22:00:49.038Z,25.07
2019-03-01T22:04:54.754Z,24.23
2019-03-01T22:09:00.463Z,26.07
2019-03-01T22:13:07.776Z,27.13
2019-03-01T22:17:13.709Z,24.57
2019-03-01T22:21:22.827Z,23.23
2019-03-01T22:25:28.873Z,24.93
2019-03-01T22:29:34.551Z,22.90
2019-03-01T22:33:40.335Z,25.03
2019-03-01T22:37:46.986Z,25.73
2019-03-01T22:41:54.330Z,26.27
2019-03-01T22:50:11.912Z,23.70
2019-03-01T22:54:17.912Z,23.13
2019-03-01T22:58:24.513Z,24.77
2019-03-01T23:02:30.344Z,24.03
2019-03-01T23:06:36.147Z,27.73
2019-03-01T23:10:41.892Z,24.13
2019-03-01T23:14:47.605Z,24.80
2019-03-01T23:18:56.702Z,23.93
2019-03-01T23:23:00.883Z,26.63
2019-03-01T23:27:06.707Z,23.30
2019-03-01T23:31:12.516Z,24.85
2019-03-01T23:35:19.005Z,25.43
2019-03-01T23:39:25.442Z,22.23
2019-03-01T23:43:31.782Z,27.30
2019-03-01T23:47:38.367Z,27.57
2019-03-01T23:51:45.550Z,26.13
2019-03-01T23:55:54.645Z,29.50
